createdAt,value
2023-03-31T00:01:34.834Z,73.80
2023-03-31T00:04:05.983Z,74.10
2023-03-31T00:06:41.815Z,76.10
2023-03-31T00:09:12.023Z,76.20
2023-03-31T00:11:40.626Z,74.20
2023-03-31T00:14:09.167Z,75.00
2023-03-31T00:16:38.073Z,72.00
2023-03-31T00:19:06.370Z,74.20
2023-03-31T00:21:36.938Z,78.40
2023-03-31T00:24:09.188Z,71.00
2023-03-31T00:26:39.814Z,70.90
2023-03-31T00:29:09.196Z,71.30
2023-03-31T00:31:39.087Z,66.10
2023-03-31T00:34:07.541Z,67.90
2023-03-31T00:36:37.115Z,67.30
2023-03-31T00:39:10.482Z,63.70
2023-03-31T00:41:39.379Z,62.90
2023-03-31T00:44:13.916Z,60.10
2023-03-31T00:46:56.404Z,52.50
2023-03-31T00:49:34.928Z,51.70
2023-03-31T00:52:10.878Z,57.40
2023-03-31T00:54:39.087Z,56.00
2023-03-31T00:57:07.575Z,51.40
2023-03-31T00:59:41.597Z,48.10
2023-03-31T01:02:09.877Z,45.40
2023-03-31T01:04:51.069Z,46.70
2023-03-31T01:07:26.557Z,42.50
2023-03-31T01:09:59.158Z,44.60
2023-03-31T01:12:28.148Z,40.80
2023-03-31T01:14:56.645Z,42.50
2023-03-31T01:17:25.235Z,43.30
2023-03-31T01:20:07.308Z,37.00
2023-03-31T01:22:46.281Z,39.20
2023-03-31T01:25:45.809Z,35.80
2023-03-31T01:28:42.388Z,35.50
2023-03-31T01:31:16.991Z,35.80
2023-03-31T01:33:49.014Z,38.10
2023-03-31T01:36:23.077Z,38.40
2023-03-31T01:39:10.159Z,35.90
2023-03-31T01:42:15.511Z,37.10
2023-03-31T01:45:19.735Z,32.20
2023-03-31T01:48:14.801Z,33.00
2023-03-31T01:51:15.524Z,32.80
2023-03-31T01:53:54.292Z,32.90
2023-03-31T01:56:37.442Z,29.50
2023-03-31T02:01:47.279Z,25.80
2023-03-31T02:04:24.971Z,27.60
2023-03-31T02:06:57.701Z,28.50
2023-03-31T02:09:29.436Z,29.20
2023-03-31T02:11:57.775Z,29.60
2023-03-31T02:14:28.064Z,27.50
2023-03-31T02:16:58.655Z,28.40
2023-03-31T02:19:29.852Z,28.30
2023-03-31T02:21:59.297Z,28.40
2023-03-31T02:24:27.904Z,25.20
2023-03-31T02:27:37.946Z,25.20
2023-03-31T02:30:07.983Z,26.50
2023-03-31T02:32:44.644Z,24.70
2023-03-31T02:35:18.018Z,23.50
2023-03-31T02:40:21.825Z,21.50
2023-03-31T02:42:50.093Z,22.40
2023-03-31T02:45:53.774Z,20.90
2023-03-31T02:48:32.918Z,20.70
2023-03-31T02:51:10.467Z,21.80
2023-03-31T02:54:18.754Z,24.00
2023-03-31T02:56:57.322Z,23.50
2023-03-31T02:59:58.126Z,20.90
2023-03-31T03:02:32.585Z,20.30
2023-03-31T03:05:09.912Z,24.20
2023-03-31T03:07:52.002Z,21.90
2023-03-31T03:10:26.518Z,19.50
2023-03-31T03:13:01.145Z,21.00
2023-03-31T03:15:41.361Z,20.20
2023-03-31T03:18:10.409Z,18.70
2023-03-31T03:20:39.427Z,21.40
2023-03-31T03:23:07.714Z,20.20
2023-03-31T03:25:35.899Z,23.50
2023-03-31T03:28:04.149Z,22.00
2023-03-31T03:30:32.470Z,20.80
2023-03-31T03:33:03.531Z,20.90
2023-03-31T03:35:33.247Z,21.80
2023-03-31T03:38:01.678Z,23.70
2023-03-31T03:40:30.824Z,21.20
2023-03-31T03:42:59.149Z,22.60
2023-03-31T03:45:28.194Z,24.30
2023-03-31T03:47:59.980Z,24.70
2023-03-31T03:50:28.223Z,22.80
2023-03-31T03:52:56.629Z,21.20
2023-03-31T03:55:29.169Z,21.70
2023-03-31T03:57:57.443Z,23.10
2023-03-31T04:00:25.957Z,21.90
2023-03-31T04:02:55.524Z,20.00
2023-03-31T04:05:23.911Z,18.70
2023-03-31T04:07:52.080Z,20.80
2023-03-31T04:10:22.029Z,23.50
2023-03-31T04:12:50.599Z,26.40
2023-03-31T04:15:18.753Z,25.80
2023-03-31T04:17:51.021Z,25.50
2023-03-31T04:20:19.929Z,22.10
2023-03-31T04:22:50.929Z,23.40
2023-03-31T04:25:20.013Z,24.30
2023-03-31T04:27:55.116Z,23.10
2023-03-31T04:30:31.082Z,21.70
2023-03-31T04:33:02.933Z,22.10
2023-03-31T04:35:50.067Z,24.00
2023-03-31T04:38:24.322Z,21.50
2023-03-31T04:40:52.968Z,16.40
2023-03-31T04:43:22.640Z,24.80
2023-03-31T04:45:51.106Z,29.10
2023-03-31T04:48:19.408Z,23.90
2023-03-31T04:50:48.400Z,22.30
2023-03-31T04:53:16.638Z,23.20
2023-03-31T04:55:46.385Z,22.80
2023-03-31T04:58:14.943Z,20.90
2023-03-31T05:00:44.175Z,27.60
2023-03-31T05:03:13.000Z,20.80
2023-03-31T05:05:41.664Z,23.30
2023-03-31T05:08:10.081Z,22.70
2023-03-31T05:10:46.880Z,22.10
2023-03-31T05:13:16.953Z,20.40
2023-03-31T05:15:45.653Z,21.40
2023-03-31T05:18:14.895Z,22.00
2023-03-31T05:20:43.419Z,23.70
2023-03-31T05:23:11.664Z,25.00
2023-03-31T05:25:42.443Z,22.80
2023-03-31T05:28:10.921Z,20.70
2023-03-31T05:30:39.110Z,23.10
2023-03-31T05:33:07.486Z,21.30
2023-03-31T05:35:36.792Z,20.10
2023-03-31T05:38:04.976Z,24.20
2023-03-31T05:40:33.981Z,21.50
2023-03-31T05:43:02.264Z,23.80
2023-03-31T05:45:31.251Z,25.20
2023-03-31T05:47:59.688Z,22.90
2023-03-31T05:50:28.343Z,23.40
2023-03-31T05:52:57.987Z,22.80
2023-03-31T05:55:33.580Z,22.10
2023-03-31T05:58:02.086Z,20.20
2023-03-31T06:00:31.682Z,18.80
2023-03-31T06:03:09.807Z,20.80
2023-03-31T06:05:38.249Z,21.80
2023-03-31T06:08:07.846Z,20.50
2023-03-31T06:10:38.573Z,19.40
2023-03-31T06:13:07.213Z,21.80
2023-03-31T06:15:41.791Z,23.30
2023-03-31T06:18:11.503Z,20.70
2023-03-31T06:20:39.960Z,22.20
2023-03-31T06:23:08.157Z,20.80
2023-03-31T06:25:50.358Z,20.50
2023-03-31T06:28:20.333Z,19.50
2023-03-31T06:30:48.607Z,20.60
2023-03-31T06:33:17.868Z,38.80
2023-03-31T06:35:46.439Z,19.80
2023-03-31T06:38:15.396Z,19.10
2023-03-31T06:40:43.717Z,18.60
2023-03-31T06:43:12.242Z,19.40
2023-03-31T06:45:41.671Z,21.20
2023-03-31T06:48:10.038Z,22.30
2023-03-31T06:50:39.518Z,20.30
2023-03-31T06:53:08.925Z,20.40
2023-03-31T06:55:37.652Z,20.10
2023-03-31T06:58:06.269Z,19.50
2023-03-31T07:00:34.573Z,17.20
2023-03-31T07:03:25.189Z,16.90
2023-03-31T07:05:55.133Z,17.90
2023-03-31T07:08:23.389Z,18.30
2023-03-31T07:10:58.009Z,19.10
2023-03-31T07:13:26.608Z,19.70
2023-03-31T07:15:55.849Z,16.90
2023-03-31T07:18:34.418Z,15.10
2023-03-31T07:21:07.248Z,18.30
2023-03-31T07:23:38.454Z,17.50
2023-03-31T07:26:08.046Z,19.20
2023-03-31T07:28:37.635Z,17.80
2023-03-31T07:31:15.552Z,15.90
2023-03-31T07:33:44.190Z,18.60
2023-03-31T07:36:14.177Z,17.50
2023-03-31T07:38:47.053Z,20.90
2023-03-31T07:41:20.067Z,19.60
2023-03-31T07:43:48.776Z,19.50
2023-03-31T07:46:22.677Z,20.20
2023-03-31T07:48:52.789Z,17.40
2023-03-31T07:51:23.775Z,16.40
2023-03-31T07:53:52.906Z,17.30
2023-03-31T07:56:24.843Z,17.10
2023-03-31T07:58:57.362Z,21.40
2023-03-31T08:01:29.077Z,19.20
2023-03-31T08:03:59.318Z,22.20
2023-03-31T08:06:29.276Z,16.90
2023-03-31T08:08:57.996Z,18.70
2023-03-31T08:11:26.429Z,18.40
2023-03-31T08:13:55.602Z,16.20
2023-03-31T08:16:23.991Z,16.40
2023-03-31T08:18:54.518Z,18.20
2023-03-31T08:21:24.580Z,17.10
2023-03-31T08:24:01.812Z,17.80
2023-03-31T08:26:32.997Z,14.50
2023-03-31T08:29:01.300Z,13.40
2023-03-31T08:31:30.749Z,16.10
2023-03-31T08:33:59.151Z,18.30
2023-03-31T08:36:31.074Z,15.20
2023-03-31T08:39:00.969Z,14.60
2023-03-31T08:41:42.960Z,14.30
2023-03-31T08:44:15.588Z,15.50
2023-03-31T08:46:45.402Z,14.50
2023-03-31T08:49:16.646Z,16.30
2023-03-31T08:52:05.419Z,15.50
2023-03-31T08:54:47.212Z,15.10
2023-03-31T08:57:20.160Z,13.10
